sensor_id;sensor_type;location;lat;lon;timestamp;P1;durP1;ratioP1;P2;durP2;ratioP2
30896;SDS011;64229;52.246;21.054;2022-10-16T00:00:53;21.30;;;12.60;;
30896;SDS011;64229;52.246;21.054;2022-10-16T00:03:18;19.97;;;12.10;;
30896;SDS011;64229;52.246;21.054;2022-10-16T00:05:44;21.80;;;12.07;;
30896;SDS011;64229;52.246;21.054;2022-10-16T00:08:10;20.77;;;11.55;;
30896;SDS011;64229;52.246;21.054;2022-10-16T00:10:36;20.17;;;11.65;;
30896;SDS011;64229;52.246;21.054;2022-10-16T00:13:02;20.90;;;11.65;;
30896;SDS011;64229;52.246;21.054;2022-10-16T00:15:28;20.67;;;12.18;;
30896;SDS011;64229;52.246;21.054;2022-10-16T00:17:53;21.05;;;11.90;;
30896;SDS011;64229;52.246;21.054;2022-10-16T00:20:19;21.67;;;12.45;;
30896;SDS011;64229;52.246;21.054;2022-10-16T00:22:44;22.73;;;11.30;;
30896;SDS011;64229;52.246;21.054;2022-10-16T00:25:09;20.63;;;11.07;;
30896;SDS011;64229;52.246;21.054;2022-10-16T00:27:35;20.42;;;11.73;;
30896;SDS011;64229;52.246;21.054;2022-10-16T00:30:00;20.73;;;12.40;;
30896;SDS011;64229;52.246;21.054;2022-10-16T00:32:25;19.55;;;11.52;;
30896;SDS011;64229;52.246;21.054;2022-10-16T00:34:51;22.35;;;12.57;;
30896;SDS011;64229;52.246;21.054;2022-10-16T00:37:16;30.27;;;12.33;;
30896;SDS011;64229;52.246;21.054;2022-10-16T00:39:41;19.60;;;11.27;;
30896;SDS011;64229;52.246;21.054;2022-10-16T00:42:08;21.88;;;12.52;;
30896;SDS011;64229;52.246;21.054;2022-10-16T00:44:49;22.83;;;12.95;;
30896;SDS011;64229;52.246;21.054;2022-10-16T00:47:30;22.98;;;13.55;;
30896;SDS011;64229;52.246;21.054;2022-10-16T00:50:07;22.83;;;13.25;;
30896;SDS011;64229;52.246;21.054;2022-10-16T00:52:36;25.15;;;13.63;;
30896;SDS011;64229;52.246;21.054;2022-10-16T00:55:04;24.25;;;13.70;;
30896;SDS011;64229;52.246;21.054;2022-10-16T00:57:31;26.90;;;14.63;;
30896;SDS011;64229;52.246;21.054;2022-10-16T00:59:56;29.08;;;14.80;;
30896;SDS011;64229;52.246;21.054;2022-10-16T01:02:23;27.35;;;15.07;;
30896;SDS011;64229;52.246;21.054;2022-10-16T01:04:49;36.77;;;14.53;;
30896;SDS011;64229;52.246;21.054;2022-10-16T01:15:17;25.50;;;14.70;;
30896;SDS011;64229;52.246;21.054;2022-10-16T01:18:08;25.48;;;14.38;;
30896;SDS011;64229;52.246;21.054;2022-10-16T01:20:35;29.20;;;16.17;;
30896;SDS011;64229;52.246;21.054;2022-10-16T01:25:45;28.30;;;14.55;;
30896;SDS011;64229;52.246;21.054;2022-10-16T01:28:22;31.15;;;16.30;;
30896;SDS011;64229;52.246;21.054;2022-10-16T01:30:53;25.73;;;15.02;;
30896;SDS011;64229;52.246;21.054;2022-10-16T01:33:24;29.35;;;14.30;;
30896;SDS011;64229;52.246;21.054;2022-10-16T01:35:56;25.90;;;14.40;;
30896;SDS011;64229;52.246;21.054;2022-10-16T01:38:34;30.48;;;14.43;;
30896;SDS011;64229;52.246;21.054;2022-10-16T01:41:05;24.83;;;13.90;;
30896;SDS011;64229;52.246;21.054;2022-10-16T01:43:36;26.42;;;14.15;;
30896;SDS011;64229;52.246;21.054;2022-10-16T01:46:05;23.30;;;14.00;;
30896;SDS011;64229;52.246;21.054;2022-10-16T01:48:33;28.52;;;14.57;;
30896;SDS011;64229;52.246;21.054;2022-10-16T01:51:04;23.35;;;13.60;;
30896;SDS011;64229;52.246;21.054;2022-10-16T01:53:33;28.48;;;15.60;;
30896;SDS011;64229;52.246;21.054;2022-10-16T01:55:59;28.98;;;15.13;;
30896;SDS011;64229;52.246;21.054;2022-10-16T01:58:27;29.35;;;15.05;;
30896;SDS011;64229;52.246;21.054;2022-10-16T02:00:55;28.85;;;15.32;;
30896;SDS011;64229;52.246;21.054;2022-10-16T02:03:21;29.13;;;14.95;;
30896;SDS011;64229;52.246;21.054;2022-10-16T02:05:51;26.02;;;14.85;;
30896;SDS011;64229;52.246;21.054;2022-10-16T02:08:19;30.17;;;15.68;;
30896;SDS011;64229;52.246;21.054;2022-10-16T02:10:44;26.85;;;14.90;;
30896;SDS011;64229;52.246;21.054;2022-10-16T02:13:12;27.30;;;15.85;;
30896;SDS011;64229;52.246;21.054;2022-10-16T02:15:42;28.65;;;16.02;;
30896;SDS011;64229;52.246;21.054;2022-10-16T02:18:07;28.88;;;15.32;;
30896;SDS011;64229;52.246;21.054;2022-10-16T02:20:53;27.77;;;15.45;;
30896;SDS011;64229;52.246;21.054;2022-10-16T02:24:09;28.83;;;16.63;;
30896;SDS011;64229;52.246;21.054;2022-10-16T02:26:27;30.20;;;16.48;;
30896;SDS011;64229;52.246;21.054;2022-10-16T02:29:02;31.05;;;15.57;;
30896;SDS011;64229;52.246;21.054;2022-10-16T02:31:32;28.48;;;15.90;;
30896;SDS011;64229;52.246;21.054;2022-10-16T02:34:00;30.85;;;16.52;;
30896;SDS011;64229;52.246;21.054;2022-10-16T02:36:30;32.05;;;17.55;;
30896;SDS011;64229;52.246;21.054;2022-10-16T02:38:56;29.48;;;17.35;;
30896;SDS011;64229;52.246;21.054;2022-10-16T02:41:24;34.95;;;18.58;;
30896;SDS011;64229;52.246;21.054;2022-10-16T02:43:49;33.95;;;17.92;;
30896;SDS011;64229;52.246;21.054;2022-10-16T02:46:15;34.67;;;17.40;;
30896;SDS011;64229;52.246;21.054;2022-10-16T02:48:41;32.45;;;18.38;;
30896;SDS011;64229;52.246;21.054;2022-10-16T02:51:07;32.53;;;17.42;;
30896;SDS011;64229;52.246;21.054;2022-10-16T02:53:32;30.67;;;18.13;;
30896;SDS011;64229;52.246;21.054;2022-10-16T02:55:57;36.28;;;18.88;;
30896;SDS011;64229;52.246;21.054;2022-10-16T02:58:22;40.58;;;18.63;;
30896;SDS011;64229;52.246;21.054;2022-10-16T03:00:48;33.40;;;18.20;;
30896;SDS011;64229;52.246;21.054;2022-10-16T03:03:13;32.28;;;18.55;;
30896;SDS011;64229;52.246;21.054;2022-10-16T03:05:38;31.70;;;18.23;;
30896;SDS011;64229;52.246;21.054;2022-10-16T03:08:04;33.50;;;17.95;;
30896;SDS011;64229;52.246;21.054;2022-10-16T03:10:29;32.88;;;18.35;;
30896;SDS011;64229;52.246;21.054;2022-10-16T03:12:54;35.07;;;18.43;;
30896;SDS011;64229;52.246;21.054;2022-10-16T03:15:19;33.77;;;18.60;;
30896;SDS011;64229;52.246;21.054;2022-10-16T03:17:44;34.90;;;19.60;;
30896;SDS011;64229;52.246;21.054;2022-10-16T03:20:10;32.70;;;19.00;;
30896;SDS011;64229;52.246;21.054;2022-10-16T03:22:35;35.40;;;19.60;;
30896;SDS011;64229;52.246;21.054;2022-10-16T03:25:00;31.63;;;17.77;;
30896;SDS011;64229;52.246;21.054;2022-10-16T03:27:26;34.90;;;18.40;;
30896;SDS011;64229;52.246;21.054;2022-10-16T03:29:51;30.80;;;17.98;;
30896;SDS011;64229;52.246;21.054;2022-10-16T03:32:16;33.10;;;18.98;;
30896;SDS011;64229;52.246;21.054;2022-10-16T03:34:42;32.35;;;19.25;;
30896;SDS011;64229;52.246;21.054;2022-10-16T03:37:07;34.25;;;18.80;;
30896;SDS011;64229;52.246;21.054;2022-10-16T03:39:32;34.80;;;18.48;;
30896;SDS011;64229;52.246;21.054;2022-10-16T03:41:57;37.73;;;19.77;;
30896;SDS011;64229;52.246;21.054;2022-10-16T03:44:23;35.95;;;17.60;;
30896;SDS011;64229;52.246;21.054;2022-10-16T03:46:48;34.37;;;18.40;;
30896;SDS011;64229;52.246;21.054;2022-10-16T03:49:13;36.00;;;18.20;;
30896;SDS011;64229;52.246;21.054;2022-10-16T03:51:38;35.67;;;18.13;;
30896;SDS011;64229;52.246;21.054;2022-10-16T03:54:04;32.42;;;18.25;;
30896;SDS011;64229;52.246;21.054;2022-10-16T03:56:29;32.83;;;18.42;;
30896;SDS011;64229;52.246;21.054;2022-10-16T03:58:54;30.83;;;17.97;;
30896;SDS011;64229;52.246;21.054;2022-10-16T04:01:19;37.10;;;17.33;;
30896;SDS011;64229;52.246;21.054;2022-10-16T04:03:45;30.20;;;18.30;;
30896;SDS011;64229;52.246;21.054;2022-10-16T04:06:10;33.97;;;17.43;;
30896;SDS011;64229;52.246;21.054;2022-10-16T04:08:35;30.57;;;17.33;;
30896;SDS011;64229;52.246;21.054;2022-10-16T04:11:01;30.88;;;16.88;;
30896;SDS011;64229;52.246;21.054;2022-10-16T04:13:27;29.13;;;16.50;;
30896;SDS011;64229;52.246;21.054;2022-10-16T04:15:52;27.77;;;17.10;;
30896;SDS011;64229;52.246;21.054;2022-10-16T04:18:17;30.65;;;17.23;;
30896;SDS011;64229;52.246;21.054;2022-10-16T04:20:43;30.95;;;17.48;;
30896;SDS011;64229;52.246;21.054;2022-10-16T04:23:08;34.33;;;19.63;;
30896;SDS011;64229;52.246;21.054;2022-10-16T04:25:33;31.23;;;17.25;;
30896;SDS011;64229;52.246;21.054;2022-10-16T04:27:59;27.60;;;17.00;;
30896;SDS011;64229;52.246;21.054;2022-10-16T04:30:24;34.60;;;18.17;;
30896;SDS011;64229;52.246;21.054;2022-10-16T04:32:50;29.08;;;17.25;;
30896;SDS011;64229;52.246;21.054;2022-10-16T04:35:16;29.17;;;17.33;;
30896;SDS011;64229;52.246;21.054;2022-10-16T04:37:42;29.63;;;17.73;;
30896;SDS011;64229;52.246;21.054;2022-10-16T04:40:08;31.90;;;18.02;;
30896;SDS011;64229;52.246;21.054;2022-10-16T04:42:33;29.90;;;16.55;;
30896;SDS011;64229;52.246;21.054;2022-10-16T04:44:58;30.43;;;17.27;;
30896;SDS011;64229;52.246;21.054;2022-10-16T04:47:24;29.58;;;16.33;;
30896;SDS011;64229;52.246;21.054;2022-10-16T04:49:49;28.63;;;16.87;;
30896;SDS011;64229;52.246;21.054;2022-10-16T04:52:14;29.50;;;16.85;;
30896;SDS011;64229;52.246;21.054;2022-10-16T04:54:40;29.38;;;16.90;;
30896;SDS011;64229;52.246;21.054;2022-10-16T04:57:05;25.77;;;16.43;;
30896;SDS011;64229;52.246;21.054;2022-10-16T04:59:30;28.63;;;17.15;;
30896;SDS011;64229;52.246;21.054;2022-10-16T05:01:55;31.37;;;17.03;;
30896;SDS011;64229;52.246;21.054;2022-10-16T05:04:21;29.17;;;16.33;;
30896;SDS011;64229;52.246;21.054;2022-10-16T05:06:47;27.88;;;17.50;;
30896;SDS011;64229;52.246;21.054;2022-10-16T05:09:12;31.92;;;16.42;;
30896;SDS011;64229;52.246;21.054;2022-10-16T05:11:38;27.77;;;16.17;;
30896;SDS011;64229;52.246;21.054;2022-10-16T05:14:03;34.37;;;16.23;;
30896;SDS011;64229;52.246;21.054;2022-10-16T05:16:28;32.05;;;17.35;;
30896;SDS011;64229;52.246;21.054;2022-10-16T05:18:55;28.98;;;17.60;;
30896;SDS011;64229;52.246;21.054;2022-10-16T05:21:21;32.45;;;16.20;;
30896;SDS011;64229;52.246;21.054;2022-10-16T05:23:46;29.38;;;15.82;;
30896;SDS011;64229;52.246;21.054;2022-10-16T05:26:11;31.87;;;15.93;;
30896;SDS011;64229;52.246;21.054;2022-10-16T05:28:37;26.17;;;15.52;;
30896;SDS011;64229;52.246;21.054;2022-10-16T05:31:06;28.40;;;16.27;;
30896;SDS011;64229;52.246;21.054;2022-10-16T05:33:33;26.63;;;15.50;;
30896;SDS011;64229;52.246;21.054;2022-10-16T05:36:03;28.58;;;15.88;;
30896;SDS011;64229;52.246;21.054;2022-10-16T05:38:30;26.75;;;15.02;;
30896;SDS011;64229;52.246;21.054;2022-10-16T05:40:55;27.60;;;15.60;;
30896;SDS011;64229;52.246;21.054;2022-10-16T05:43:21;27.98;;;15.23;;
30896;SDS011;64229;52.246;21.054;2022-10-16T05:46:00;25.70;;;15.55;;
30896;SDS011;64229;52.246;21.054;2022-10-16T05:48:26;28.95;;;14.43;;
30896;SDS011;64229;52.246;21.054;2022-10-16T05:50:58;28.50;;;14.43;;
30896;SDS011;64229;52.246;21.054;2022-10-16T05:53:26;27.00;;;15.20;;
30896;SDS011;64229;52.246;21.054;2022-10-16T05:55:52;22.05;;;14.48;;
30896;SDS011;64229;52.246;21.054;2022-10-16T05:58:18;27.75;;;15.85;;
30896;SDS011;64229;52.246;21.054;2022-10-16T06:00:43;25.08;;;14.85;;
30896;SDS011;64229;52.246;21.054;2022-10-16T06:03:09;28.25;;;15.48;;
30896;SDS011;64229;52.246;21.054;2022-10-16T06:05:34;23.55;;;14.48;;
30896;SDS011;64229;52.246;21.054;2022-10-16T06:07:59;28.83;;;15.77;;
30896;SDS011;64229;52.246;21.054;2022-10-16T06:10:25;28.63;;;15.20;;
30896;SDS011;64229;52.246;21.054;2022-10-16T06:12:50;27.43;;;14.07;;
30896;SDS011;64229;52.246;21.054;2022-10-16T06:15:15;24.30;;;14.20;;
30896;SDS011;64229;52.246;21.054;2022-10-16T06:17:40;22.85;;;13.85;;
30896;SDS011;64229;52.246;21.054;2022-10-16T06:20:06;22.60;;;14.53;;
30896;SDS011;64229;52.246;21.054;2022-10-16T06:22:31;28.88;;;16.20;;
30896;SDS011;64229;52.246;21.054;2022-10-16T06:24:56;25.30;;;14.63;;
30896;SDS011;64229;52.246;21.054;2022-10-16T06:27:21;26.58;;;15.05;;
30896;SDS011;64229;52.246;21.054;2022-10-16T06:29:47;24.58;;;14.15;;
30896;SDS011;64229;52.246;21.054;2022-10-16T06:32:12;23.47;;;14.03;;
30896;SDS011;64229;52.246;21.054;2022-10-16T06:34:37;23.20;;;13.73;;
30896;SDS011;64229;52.246;21.054;2022-10-16T06:37:04;26.35;;;14.35;;
30896;SDS011;64229;52.246;21.054;2022-10-16T06:39:30;23.70;;;14.07;;
30896;SDS011;64229;52.246;21.054;2022-10-16T06:41:55;25.17;;;13.77;;
30896;SDS011;64229;52.246;21.054;2022-10-16T06:44:20;26.20;;;14.18;;
30896;SDS011;64229;52.246;21.054;2022-10-16T06:46:46;21.73;;;13.97;;
30896;SDS011;64229;52.246;21.054;2022-10-16T06:49:11;24.80;;;13.93;;
30896;SDS011;64229;52.246;21.054;2022-10-16T06:51:36;26.23;;;13.50;;
30896;SDS011;64229;52.246;21.054;2022-10-16T06:54:05;26.55;;;15.43;;
30896;SDS011;64229;52.246;21.054;2022-10-16T06:56:31;26.70;;;14.40;;
30896;SDS011;64229;52.246;21.054;2022-10-16T06:58:57;24.23;;;13.18;;
30896;SDS011;64229;52.246;21.054;2022-10-16T07:01:23;25.35;;;13.75;;
30896;SDS011;64229;52.246;21.054;2022-10-16T07:03:49;23.92;;;14.20;;
30896;SDS011;64229;52.246;21.054;2022-10-16T07:06:16;21.48;;;12.80;;
30896;SDS011;64229;52.246;21.054;2022-10-16T07:08:43;24.08;;;13.75;;
30896;SDS011;64229;52.246;21.054;2022-10-16T07:11:13;21.33;;;12.98;;
30896;SDS011;64229;52.246;21.054;2022-10-16T07:13:41;24.67;;;12.90;;
30896;SDS011;64229;52.246;21.054;2022-10-16T07:16:11;22.80;;;13.02;;
30896;SDS011;64229;52.246;21.054;2022-10-16T07:18:38;20.30;;;12.10;;
30896;SDS011;64229;52.246;21.054;2022-10-16T07:21:06;24.17;;;12.70;;
30896;SDS011;64229;52.246;21.054;2022-10-16T07:23:36;20.25;;;13.00;;
30896;SDS011;64229;52.246;21.054;2022-10-16T07:26:02;30.70;;;12.75;;
30896;SDS011;64229;52.246;21.054;2022-10-16T07:28:28;20.75;;;13.23;;
30896;SDS011;64229;52.246;21.054;2022-10-16T07:30:54;23.02;;;12.45;;
30896;SDS011;64229;52.246;21.054;2022-10-16T07:33:19;20.50;;;12.25;;
30896;SDS011;64229;52.246;21.054;2022-10-16T07:35:49;19.65;;;12.35;;
30896;SDS011;64229;52.246;21.054;2022-10-16T07:38:16;21.85;;;12.18;;
30896;SDS011;64229;52.246;21.054;2022-10-16T07:40:41;23.15;;;12.35;;
30896;SDS011;64229;52.246;21.054;2022-10-16T07:43:07;21.10;;;11.93;;
30896;SDS011;64229;52.246;21.054;2022-10-16T07:45:32;21.27;;;12.80;;
30896;SDS011;64229;52.246;21.054;2022-10-16T07:47:57;19.70;;;11.70;;
30896;SDS011;64229;52.246;21.054;2022-10-16T07:50:23;21.50;;;12.60;;
30896;SDS011;64229;52.246;21.054;2022-10-16T07:52:48;22.35;;;12.43;;
30896;SDS011;64229;52.246;21.054;2022-10-16T07:55:13;20.60;;;12.43;;
30896;SDS011;64229;52.246;21.054;2022-10-16T07:57:38;21.95;;;12.88;;
30896;SDS011;64229;52.246;21.054;2022-10-16T08:00:04;20.97;;;12.73;;
30896;SDS011;64229;52.246;21.054;2022-10-16T08:02:30;21.23;;;12.02;;
30896;SDS011;64229;52.246;21.054;2022-10-16T08:04:56;21.60;;;12.27;;
30896;SDS011;64229;52.246;21.054;2022-10-16T08:07:21;21.20;;;13.17;;
30896;SDS011;64229;52.246;21.054;2022-10-16T08:09:48;23.70;;;12.32;;
30896;SDS011;64229;52.246;21.054;2022-10-16T08:12:14;24.65;;;12.07;;
30896;SDS011;64229;52.246;21.054;2022-10-16T08:14:40;19.90;;;11.57;;
30896;SDS011;64229;52.246;21.054;2022-10-16T08:17:05;19.60;;;11.23;;
30896;SDS011;64229;52.246;21.054;2022-10-16T08:19:30;18.43;;;11.30;;
30896;SDS011;64229;52.246;21.054;2022-10-16T08:21:59;19.13;;;10.60;;
30896;SDS011;64229;52.246;21.054;2022-10-16T08:24:24;17.93;;;11.20;;
30896;SDS011;64229;52.246;21.054;2022-10-16T08:26:49;17.27;;;10.30;;
30896;SDS011;64229;52.246;21.054;2022-10-16T08:29:14;18.93;;;11.23;;
30896;SDS011;64229;52.246;21.054;2022-10-16T08:31:40;19.87;;;10.93;;
30896;SDS011;64229;52.246;21.054;2022-10-16T08:34:05;14.30;;;9.77;;
30896;SDS011;64229;52.246;21.054;2022-10-16T08:36:30;20.93;;;10.77;;
30896;SDS011;64229;52.246;21.054;2022-10-16T08:38:55;19.33;;;10.83;;
30896;SDS011;64229;52.246;21.054;2022-10-16T08:44:12;16.52;;;10.70;;
30896;SDS011;64229;52.246;21.054;2022-10-16T08:49:32;17.75;;;10.48;;
30896;SDS011;64229;52.246;21.054;2022-10-16T08:51:57;15.57;;;10.20;;
30896;SDS011;64229;52.246;21.054;2022-10-16T08:54:31;21.23;;;11.10;;
30896;SDS011;64229;52.246;21.054;2022-10-16T08:57:09;17.13;;;10.18;;
30896;SDS011;64229;52.246;21.054;2022-10-16T08:59:37;15.32;;;9.82;;
30896;SDS011;64229;52.246;21.054;2022-10-16T09:02:02;15.20;;;10.00;;
30896;SDS011;64229;52.246;21.054;2022-10-16T09:05:01;20.05;;;11.23;;
30896;SDS011;64229;52.246;21.054;2022-10-16T09:07:43;17.95;;;10.65;;
30896;SDS011;64229;52.246;21.054;2022-10-16T09:10:26;15.38;;;9.55;;
30896;SDS011;64229;52.246;21.054;2022-10-16T09:18:44;15.82;;;9.95;;
30896;SDS011;64229;52.246;21.054;2022-10-16T09:21:21;15.75;;;9.73;;
30896;SDS011;64229;52.246;21.054;2022-10-16T09:23:50;18.52;;;9.45;;
30896;SDS011;64229;52.246;21.054;2022-10-16T09:26:16;15.77;;;9.82;;
30896;SDS011;64229;52.246;21.054;2022-10-16T09:28:44;15.15;;;9.60;;
30896;SDS011;64229;52.246;21.054;2022-10-16T09:31:12;14.38;;;9.60;;
30896;SDS011;64229;52.246;21.054;2022-10-16T09:33:41;15.07;;;9.30;;
30896;SDS011;64229;52.246;21.054;2022-10-16T09:36:08;17.75;;;10.10;;
30896;SDS011;64229;52.246;21.054;2022-10-16T09:38:35;17.40;;;9.32;;
30896;SDS011;64229;52.246;21.054;2022-10-16T09:41:02;12.50;;;9.27;;
30896;SDS011;64229;52.246;21.054;2022-10-16T09:43:39;15.90;;;9.60;;
30896;SDS011;64229;52.246;21.054;2022-10-16T09:49:02;17.30;;;9.43;;
30896;SDS011;64229;52.246;21.054;2022-10-16T09:51:33;19.38;;;9.57;;
30896;SDS011;64229;52.246;21.054;2022-10-16T09:54:11;14.60;;;9.27;;
30896;SDS011;64229;52.246;21.054;2022-10-16T09:56:39;16.10;;;9.02;;
30896;SDS011;64229;52.246;21.054;2022-10-16T09:59:15;14.70;;;9.05;;
30896;SDS011;64229;52.246;21.054;2022-10-16T10:01:46;15.23;;;8.88;;
30896;SDS011;64229;52.246;21.054;2022-10-16T10:04:15;15.73;;;9.55;;
30896;SDS011;64229;52.246;21.054;2022-10-16T10:06:43;14.65;;;9.40;;
30896;SDS011;64229;52.246;21.054;2022-10-16T10:09:15;15.02;;;9.15;;
30896;SDS011;64229;52.246;21.054;2022-10-16T10:11:46;18.40;;;9.20;;
30896;SDS011;64229;52.246;21.054;2022-10-16T10:14:18;15.52;;;9.13;;
30896;SDS011;64229;52.246;21.054;2022-10-16T10:16:47;13.13;;;8.95;;
30896;SDS011;64229;52.246;21.054;2022-10-16T10:19:14;16.13;;;9.35;;
30896;SDS011;64229;52.246;21.054;2022-10-16T10:21:40;13.88;;;9.05;;
30896;SDS011;64229;52.246;21.054;2022-10-16T10:24:09;15.60;;;9.82;;
30896;SDS011;64229;52.246;21.054;2022-10-16T10:26:35;14.10;;;9.55;;
30896;SDS011;64229;52.246;21.054;2022-10-16T10:29:20;15.35;;;9.00;;
30896;SDS011;64229;52.246;21.054;2022-10-16T10:32:00;14.18;;;9.40;;
30896;SDS011;64229;52.246;21.054;2022-10-16T10:37:12;16.55;;;8.88;;
30896;SDS011;64229;52.246;21.054;2022-10-16T10:39:43;16.45;;;8.75;;
30896;SDS011;64229;52.246;21.054;2022-10-16T10:47:48;18.67;;;9.32;;
30896;SDS011;64229;52.246;21.054;2022-10-16T10:50:25;14.57;;;8.73;;
30896;SDS011;64229;52.246;21.054;2022-10-16T11:01:56;17.13;;;8.80;;
30896;SDS011;64229;52.246;21.054;2022-10-16T11:04:42;15.98;;;8.50;;
30896;SDS011;64229;52.246;21.054;2022-10-16T11:07:30;16.83;;;9.02;;
30896;SDS011;64229;52.246;21.054;2022-10-16T11:13:28;11.88;;;8.02;;
30896;SDS011;64229;52.246;21.054;2022-10-16T11:15:59;13.52;;;8.77;;
30896;SDS011;64229;52.246;21.054;2022-10-16T11:21:15;13.65;;;8.25;;
30896;SDS011;64229;52.246;21.054;2022-10-16T11:23:46;16.58;;;8.75;;
30896;SDS011;64229;52.246;21.054;2022-10-16T11:26:20;14.50;;;8.27;;
30896;SDS011;64229;52.246;21.054;2022-10-16T11:28:49;15.43;;;9.07;;
30896;SDS011;64229;52.246;21.054;2022-10-16T11:34:06;14.60;;;8.38;;
30896;SDS011;64229;52.246;21.054;2022-10-16T11:36:47;14.88;;;8.30;;
30896;SDS011;64229;52.246;21.054;2022-10-16T11:41:50;11.07;;;7.90;;
30896;SDS011;64229;52.246;21.054;2022-10-16T11:44:23;14.02;;;9.10;;
30896;SDS011;64229;52.246;21.054;2022-10-16T11:47:07;13.23;;;8.65;;
30896;SDS011;64229;52.246;21.054;2022-10-16T11:49:40;14.15;;;8.18;;
30896;SDS011;64229;52.246;21.054;2022-10-16T11:52:23;11.63;;;7.93;;
30896;SDS011;64229;52.246;21.054;2022-10-16T11:55:16;13.25;;;7.90;;
30896;SDS011;64229;52.246;21.054;2022-10-16T11:57:49;12.52;;;7.95;;
30896;SDS011;64229;52.246;21.054;2022-10-16T12:00:27;14.43;;;7.60;;
30896;SDS011;64229;52.246;21.054;2022-10-16T12:03:14;14.95;;;8.07;;
30896;SDS011;64229;52.246;21.054;2022-10-16T12:08:40;15.93;;;8.32;;
30896;SDS011;64229;52.246;21.054;2022-10-16T12:14:02;14.10;;;7.93;;
30896;SDS011;64229;52.246;21.054;2022-10-16T12:16:50;14.65;;;7.85;;
30896;SDS011;64229;52.246;21.054;2022-10-16T12:19:17;12.63;;;7.95;;
30896;SDS011;64229;52.246;21.054;2022-10-16T12:21:44;14.77;;;8.40;;
30896;SDS011;64229;52.246;21.054;2022-10-16T12:27:16;11.38;;;7.97;;
30896;SDS011;64229;52.246;21.054;2022-10-16T12:29:46;15.10;;;8.30;;
30896;SDS011;64229;52.246;21.054;2022-10-16T12:34:52;13.50;;;7.60;;
30896;SDS011;64229;52.246;21.054;2022-10-16T12:37:21;16.98;;;8.65;;
30896;SDS011;64229;52.246;21.054;2022-10-16T12:39:49;15.90;;;9.18;;
30896;SDS011;64229;52.246;21.054;2022-10-16T12:42:23;12.35;;;7.93;;
30896;SDS011;64229;52.246;21.054;2022-10-16T12:44:58;10.68;;;8.18;;
30896;SDS011;64229;52.246;21.054;2022-10-16T12:47:36;16.27;;;8.35;;
30896;SDS011;64229;52.246;21.054;2022-10-16T12:50:03;12.02;;;8.40;;
30896;SDS011;64229;52.246;21.054;2022-10-16T12:52:48;14.48;;;8.50;;
30896;SDS011;64229;52.246;21.054;2022-10-16T12:55:15;15.80;;;8.68;;
30896;SDS011;64229;52.246;21.054;2022-10-16T13:00:44;14.05;;;8.80;;
30896;SDS011;64229;52.246;21.054;2022-10-16T13:14:25;13.95;;;8.80;;
30896;SDS011;64229;52.246;21.054;2022-10-16T13:25:22;16.92;;;8.30;;
30896;SDS011;64229;52.246;21.054;2022-10-16T13:28:01;12.85;;;8.20;;
30896;SDS011;64229;52.246;21.054;2022-10-16T13:30:29;11.40;;;8.10;;
30896;SDS011;64229;52.246;21.054;2022-10-16T13:33:00;13.05;;;8.35;;
30896;SDS011;64229;52.246;21.054;2022-10-16T13:35:30;12.60;;;7.90;;
30896;SDS011;64229;52.246;21.054;2022-10-16T13:38:16;12.40;;;7.82;;
30896;SDS011;64229;52.246;21.054;2022-10-16T13:40:59;13.40;;;7.75;;
30896;SDS011;64229;52.246;21.054;2022-10-16T13:43:35;15.68;;;8.32;;
30896;SDS011;64229;52.246;21.054;2022-10-16T13:46:02;15.07;;;8.30;;
30896;SDS011;64229;52.246;21.054;2022-10-16T13:48:31;13.68;;;8.18;;
30896;SDS011;64229;52.246;21.054;2022-10-16T13:51:16;15.15;;;7.82;;
30896;SDS011;64229;52.246;21.054;2022-10-16T13:56:12;12.20;;;8.50;;
30896;SDS011;64229;52.246;21.054;2022-10-16T13:58:39;11.77;;;6.97;;
30896;SDS011;64229;52.246;21.054;2022-10-16T14:01:11;12.18;;;7.85;;
30896;SDS011;64229;52.246;21.054;2022-10-16T14:03:41;11.50;;;7.40;;
30896;SDS011;64229;52.246;21.054;2022-10-16T14:06:11;12.23;;;7.90;;
30896;SDS011;64229;52.246;21.054;2022-10-16T14:08:42;12.32;;;6.72;;
30896;SDS011;64229;52.246;21.054;2022-10-16T14:11:10;12.88;;;7.47;;
30896;SDS011;64229;52.246;21.054;2022-10-16T14:13:39;13.73;;;7.03;;
30896;SDS011;64229;52.246;21.054;2022-10-16T14:16:09;13.48;;;7.40;;
30896;SDS011;64229;52.246;21.054;2022-10-16T14:18:41;10.35;;;6.78;;
30896;SDS011;64229;52.246;21.054;2022-10-16T14:21:12;12.23;;;7.97;;
30896;SDS011;64229;52.246;21.054;2022-10-16T14:23:40;10.70;;;7.82;;
30896;SDS011;64229;52.246;21.054;2022-10-16T14:28:35;12.20;;;7.82;;
30896;SDS011;64229;52.246;21.054;2022-10-16T14:31:01;10.82;;;7.53;;
30896;SDS011;64229;52.246;21.054;2022-10-16T14:33:39;13.30;;;8.38;;
30896;SDS011;64229;52.246;21.054;2022-10-16T14:38:35;11.70;;;7.43;;
30896;SDS011;64229;52.246;21.054;2022-10-16T14:41:03;12.23;;;8.35;;
30896;SDS011;64229;52.246;21.054;2022-10-16T14:43:36;10.77;;;7.50;;
30896;SDS011;64229;52.246;21.054;2022-10-16T14:46:03;12.07;;;8.15;;
30896;SDS011;64229;52.246;21.054;2022-10-16T14:48:34;10.80;;;7.70;;
30896;SDS011;64229;52.246;21.054;2022-10-16T14:50:59;13.23;;;8.60;;
30896;SDS011;64229;52.246;21.054;2022-10-16T14:53:24;14.57;;;8.03;;
30896;SDS011;64229;52.246;21.054;2022-10-16T14:55:50;12.97;;;8.00;;
30896;SDS011;64229;52.246;21.054;2022-10-16T14:58:22;11.02;;;7.55;;
30896;SDS011;64229;52.246;21.054;2022-10-16T15:00:48;13.48;;;7.70;;
30896;SDS011;64229;52.246;21.054;2022-10-16T15:03:14;12.07;;;7.63;;
30896;SDS011;64229;52.246;21.054;2022-10-16T15:05:39;11.70;;;7.72;;
30896;SDS011;64229;52.246;21.054;2022-10-16T15:08:05;15.23;;;8.90;;
30896;SDS011;64229;52.246;21.054;2022-10-16T15:10:30;14.73;;;8.43;;
30896;SDS011;64229;52.246;21.054;2022-10-16T15:12:58;13.30;;;8.20;;
30896;SDS011;64229;52.246;21.054;2022-10-16T15:17:49;16.10;;;8.83;;
30896;SDS011;64229;52.246;21.054;2022-10-16T15:20:18;15.00;;;8.57;;
30896;SDS011;64229;52.246;21.054;2022-10-16T15:22:44;13.07;;;8.07;;
30896;SDS011;64229;52.246;21.054;2022-10-16T15:28:02;14.88;;;8.32;;
30896;SDS011;64229;52.246;21.054;2022-10-16T15:30:29;13.93;;;8.35;;
30896;SDS011;64229;52.246;21.054;2022-10-16T15:32:54;15.05;;;8.52;;
30896;SDS011;64229;52.246;21.054;2022-10-16T15:35:19;13.50;;;8.50;;
30896;SDS011;64229;52.246;21.054;2022-10-16T15:37:45;12.25;;;8.00;;
30896;SDS011;64229;52.246;21.054;2022-10-16T15:40:12;13.90;;;8.20;;
30896;SDS011;64229;52.246;21.054;2022-10-16T15:42:37;12.57;;;8.30;;
30896;SDS011;64229;52.246;21.054;2022-10-16T15:45:03;12.50;;;7.83;;
30896;SDS011;64229;52.246;21.054;2022-10-16T15:47:29;14.65;;;7.78;;
30896;SDS011;64229;52.246;21.054;2022-10-16T15:49:54;16.83;;;8.50;;
30896;SDS011;64229;52.246;21.054;2022-10-16T15:52:19;13.57;;;8.70;;
30896;SDS011;64229;52.246;21.054;2022-10-16T15:54:45;12.90;;;8.47;;
30896;SDS011;64229;52.246;21.054;2022-10-16T15:57:10;18.35;;;8.85;;
30896;SDS011;64229;52.246;21.054;2022-10-16T15:59:35;19.57;;;8.67;;
30896;SDS011;64229;52.246;21.054;2022-10-16T16:02:00;13.70;;;8.50;;